sensor_id;sensor_type;location;lat;lon;timestamp;temperature;humidity
59923;DHT22;45778;51.142;3.732;2023-12-22T00:01:56;8.90;99.90
59923;DHT22;45778;51.142;3.732;2023-12-22T00:04:21;8.70;99.90
59923;DHT22;45778;51.142;3.732;2023-12-22T00:06:47;8.70;99.90
59923;DHT22;45778;51.142;3.732;2023-12-22T00:09:14;8.70;99.90
59923;DHT22;45778;51.142;3.732;2023-12-22T00:11:40;8.80;99.90
59923;DHT22;45778;51.142;3.732;2023-12-22T00:14:05;8.80;99.90
59923;DHT22;45778;51.142;3.732;2023-12-22T00:16:31;8.90;99.90
59923;DHT22;45778;51.142;3.732;2023-12-22T00:18:56;9.00;99.90
59923;DHT22;45778;51.142;3.732;2023-12-22T00:21:23;9.00;99.90
59923;DHT22;45778;51.142;3.732;2023-12-22T00:23:48;9.10;99.90
59923;DHT22;45778;51.142;3.732;2023-12-22T00:26:14;9.20;99.90
59923;DHT22;45778;51.142;3.732;2023-12-22T00:28:40;9.20;99.90
59923;DHT22;45778;51.142;3.732;2023-12-22T00:31:07;9.30;99.90
59923;DHT22;45778;51.142;3.732;2023-12-22T00:33:33;9.50;99.90
59923;DHT22;45778;51.142;3.732;2023-12-22T00:35:58;9.60;99.90
59923;DHT22;45778;51.142;3.732;2023-12-22T00:38:24;9.60;99.90
59923;DHT22;45778;51.142;3.732;2023-12-22T00:40:49;9.60;99.90
59923;DHT22;45778;51.142;3.732;2023-12-22T00:43:15;9.70;99.90
59923;DHT22;45778;51.142;3.732;2023-12-22T00:45:41;9.80;99.90
59923;DHT22;45778;51.142;3.732;2023-12-22T00:48:06;9.80;99.90
59923;DHT22;45778;51.142;3.732;2023-12-22T00:50:32;9.80;99.90
59923;DHT22;45778;51.142;3.732;2023-12-22T00:52:58;9.80;99.90
59923;DHT22;45778;51.142;3.732;2023-12-22T00:55:23;9.90;99.90
59923;DHT22;45778;51.142;3.732;2023-12-22T00:57:49;9.80;99.90
59923;DHT22;45778;51.142;3.732;2023-12-22T01:00:15;9.80;99.90
59923;DHT22;45778;51.142;3.732;2023-12-22T01:02:41;9.90;99.90
59923;DHT22;45778;51.142;3.732;2023-12-22T01:05:07;9.80;99.90
59923;DHT22;45778;51.142;3.732;2023-12-22T01:07:32;9.90;99.90
59923;DHT22;45778;51.142;3.732;2023-12-22T01:09:58;9.90;99.90
59923;DHT22;45778;51.142;3.732;2023-12-22T01:12:28;9.80;99.90
59923;DHT22;45778;51.142;3.732;2023-12-22T01:14:55;9.90;99.90
59923;DHT22;45778;51.142;3.732;2023-12-22T01:17:20;9.90;99.90
59923;DHT22;45778;51.142;3.732;2023-12-22T01:19:46;9.90;99.90
59923;DHT22;45778;51.142;3.732;2023-12-22T01:22:12;10.00;99.90
59923;DHT22;45778;51.142;3.732;2023-12-22T01:24:37;10.10;99.90
59923;DHT22;45778;51.142;3.732;2023-12-22T01:27:06;10.10;99.90
59923;DHT22;45778;51.142;3.732;2023-12-22T01:29:32;10.10;99.90
59923;DHT22;45778;51.142;3.732;2023-12-22T01:31:58;10.10;99.90
59923;DHT22;45778;51.142;3.732;2023-12-22T01:34:24;10.20;99.90
59923;DHT22;45778;51.142;3.732;2023-12-22T01:36:50;10.20;99.90
59923;DHT22;45778;51.142;3.732;2023-12-22T01:39:16;10.20;99.90
59923;DHT22;45778;51.142;3.732;2023-12-22T01:41:42;10.30;99.90
59923;DHT22;45778;51.142;3.732;2023-12-22T01:44:07;10.30;99.90
59923;DHT22;45778;51.142;3.732;2023-12-22T01:46:34;10.20;99.90
59923;DHT22;45778;51.142;3.732;2023-12-22T01:49:00;10.30;99.90
59923;DHT22;45778;51.142;3.732;2023-12-22T01:51:31;10.30;99.90
59923;DHT22;45778;51.142;3.732;2023-12-22T01:53:58;10.20;99.90
59923;DHT22;45778;51.142;3.732;2023-12-22T01:56:24;10.30;99.90
59923;DHT22;45778;51.142;3.732;2023-12-22T01:58:53;10.30;99.90
59923;DHT22;45778;51.142;3.732;2023-12-22T02:01:22;10.20;99.90
59923;DHT22;45778;51.142;3.732;2023-12-22T02:03:49;10.20;99.90
59923;DHT22;45778;51.142;3.732;2023-12-22T02:06:18;10.10;99.90
59923;DHT22;45778;51.142;3.732;2023-12-22T02:08:46;10.10;99.90
59923;DHT22;45778;51.142;3.732;2023-12-22T02:11:13;10.00;99.90
59923;DHT22;45778;51.142;3.732;2023-12-22T02:13:39;10.00;99.90
59923;DHT22;45778;51.142;3.732;2023-12-22T02:16:18;10.00;99.90
59923;DHT22;45778;51.142;3.732;2023-12-22T02:18:48;10.00;99.90
59923;DHT22;45778;51.142;3.732;2023-12-22T02:21:18;10.00;99.90
59923;DHT22;45778;51.142;3.732;2023-12-22T02:23:43;10.00;99.90
59923;DHT22;45778;51.142;3.732;2023-12-22T02:26:33;10.00;99.90
59923;DHT22;45778;51.142;3.732;2023-12-22T02:29:00;10.00;99.90
59923;DHT22;45778;51.142;3.732;2023-12-22T02:31:47;10.00;99.90
59923;DHT22;45778;51.142;3.732;2023-12-22T02:34:21;9.90;99.90
59923;DHT22;45778;51.142;3.732;2023-12-22T02:36:48;9.90;99.90
59923;DHT22;45778;51.142;3.732;2023-12-22T02:39:16;9.90;99.90
59923;DHT22;45778;51.142;3.732;2023-12-22T02:41:43;9.90;99.90
59923;DHT22;45778;51.142;3.732;2023-12-22T02:44:09;9.90;99.90
59923;DHT22;45778;51.142;3.732;2023-12-22T02:46:35;9.80;99.90
59923;DHT22;45778;51.142;3.732;2023-12-22T02:49:00;9.70;99.90
59923;DHT22;45778;51.142;3.732;2023-12-22T02:51:26;9.70;99.90
59923;DHT22;45778;51.142;3.732;2023-12-22T02:53:52;9.70;99.90
59923;DHT22;45778;51.142;3.732;2023-12-22T02:56:17;9.60;99.90
59923;DHT22;45778;51.142;3.732;2023-12-22T02:58:43;9.60;99.90
59923;DHT22;45778;51.142;3.732;2023-12-22T03:01:09;9.60;99.90
59923;DHT22;45778;51.142;3.732;2023-12-22T03:03:34;9.50;99.90
59923;DHT22;45778;51.142;3.732;2023-12-22T03:06:00;9.40;99.90
59923;DHT22;45778;51.142;3.732;2023-12-22T03:08:25;9.40;99.90
59923;DHT22;45778;51.142;3.732;2023-12-22T03:10:51;9.30;99.90
59923;DHT22;45778;51.142;3.732;2023-12-22T03:13:17;9.30;99.90
59923;DHT22;45778;51.142;3.732;2023-12-22T03:15:42;9.40;99.90
59923;DHT22;45778;51.142;3.732;2023-12-22T03:18:08;9.40;99.90
59923;DHT22;45778;51.142;3.732;2023-12-22T03:20:33;9.20;99.90
59923;DHT22;45778;51.142;3.732;2023-12-22T03:22:59;9.10;99.90
59923;DHT22;45778;51.142;3.732;2023-12-22T03:25:25;8.90;99.90
59923;DHT22;45778;51.142;3.732;2023-12-22T03:27:50;8.70;99.90
59923;DHT22;45778;51.142;3.732;2023-12-22T03:30:17;8.60;99.90
59923;DHT22;45778;51.142;3.732;2023-12-22T03:32:42;8.60;99.90
59923;DHT22;45778;51.142;3.732;2023-12-22T03:35:08;8.60;99.90
59923;DHT22;45778;51.142;3.732;2023-12-22T03:37:34;8.60;99.90
59923;DHT22;45778;51.142;3.732;2023-12-22T03:39:59;8.50;99.90
59923;DHT22;45778;51.142;3.732;2023-12-22T03:42:25;8.50;99.90
59923;DHT22;45778;51.142;3.732;2023-12-22T03:44:51;8.40;99.90
59923;DHT22;45778;51.142;3.732;2023-12-22T03:47:16;8.50;99.90
59923;DHT22;45778;51.142;3.732;2023-12-22T03:49:43;8.50;99.90
59923;DHT22;45778;51.142;3.732;2023-12-22T03:52:08;8.40;99.90
59923;DHT22;45778;51.142;3.732;2023-12-22T03:54:34;8.40;99.90
59923;DHT22;45778;51.142;3.732;2023-12-22T03:57:00;8.40;99.90
59923;DHT22;45778;51.142;3.732;2023-12-22T03:59:25;8.40;99.90
59923;DHT22;45778;51.142;3.732;2023-12-22T04:01:52;8.40;99.90
59923;DHT22;45778;51.142;3.732;2023-12-22T04:04:18;8.40;99.90
59923;DHT22;45778;51.142;3.732;2023-12-22T04:06:44;8.40;99.90
59923;DHT22;45778;51.142;3.732;2023-12-22T04:09:09;8.50;99.90
59923;DHT22;45778;51.142;3.732;2023-12-22T04:11:35;8.60;99.90
59923;DHT22;45778;51.142;3.732;2023-12-22T04:14:02;8.60;99.90
59923;DHT22;45778;51.142;3.732;2023-12-22T04:16:28;8.80;99.90
59923;DHT22;45778;51.142;3.732;2023-12-22T04:18:53;8.90;99.90
59923;DHT22;45778;51.142;3.732;2023-12-22T04:21:19;9.00;99.90
59923;DHT22;45778;51.142;3.732;2023-12-22T04:23:45;9.10;99.90
59923;DHT22;45778;51.142;3.732;2023-12-22T04:26:10;9.20;99.90
59923;DHT22;45778;51.142;3.732;2023-12-22T04:28:36;9.20;99.90
59923;DHT22;45778;51.142;3.732;2023-12-22T04:31:02;9.30;99.90
59923;DHT22;45778;51.142;3.732;2023-12-22T04:33:28;9.30;99.90
59923;DHT22;45778;51.142;3.732;2023-12-22T04:35:54;9.30;99.90
59923;DHT22;45778;51.142;3.732;2023-12-22T04:38:19;9.40;99.90
59923;DHT22;45778;51.142;3.732;2023-12-22T04:40:45;9.40;99.90
59923;DHT22;45778;51.142;3.732;2023-12-22T04:43:10;9.40;99.90
59923;DHT22;45778;51.142;3.732;2023-12-22T04:45:36;9.50;99.90
59923;DHT22;45778;51.142;3.732;2023-12-22T04:48:02;9.50;99.90
59923;DHT22;45778;51.142;3.732;2023-12-22T04:50:27;9.60;99.90
59923;DHT22;45778;51.142;3.732;2023-12-22T04:52:53;9.60;99.90
59923;DHT22;45778;51.142;3.732;2023-12-22T04:55:19;9.70;99.90
59923;DHT22;45778;51.142;3.732;2023-12-22T04:57:45;9.60;99.90
59923;DHT22;45778;51.142;3.732;2023-12-22T05:00:11;9.70;99.90
59923;DHT22;45778;51.142;3.732;2023-12-22T05:02:37;9.60;99.90
59923;DHT22;45778;51.142;3.732;2023-12-22T05:05:03;9.70;99.90
59923;DHT22;45778;51.142;3.732;2023-12-22T05:07:29;9.60;99.90
59923;DHT22;45778;51.142;3.732;2023-12-22T05:09:55;9.60;99.90
59923;DHT22;45778;51.142;3.732;2023-12-22T05:12:21;9.70;99.90
59923;DHT22;45778;51.142;3.732;2023-12-22T05:14:46;9.80;99.90
59923;DHT22;45778;51.142;3.732;2023-12-22T05:17:12;9.80;99.90
59923;DHT22;45778;51.142;3.732;2023-12-22T05:19:38;9.80;99.90
59923;DHT22;45778;51.142;3.732;2023-12-22T05:22:03;9.90;99.90
59923;DHT22;45778;51.142;3.732;2023-12-22T05:24:29;10.00;99.90
59923;DHT22;45778;51.142;3.732;2023-12-22T05:26:56;9.90;99.90
59923;DHT22;45778;51.142;3.732;2023-12-22T05:29:22;10.00;99.90
59923;DHT22;45778;51.142;3.732;2023-12-22T05:31:49;10.00;99.90
59923;DHT22;45778;51.142;3.732;2023-12-22T05:34:14;10.10;99.90
59923;DHT22;45778;51.142;3.732;2023-12-22T05:36:40;10.10;99.90
59923;DHT22;45778;51.142;3.732;2023-12-22T05:39:06;10.20;99.90
59923;DHT22;45778;51.142;3.732;2023-12-22T05:41:35;10.10;99.90
59923;DHT22;45778;51.142;3.732;2023-12-22T05:44:02;10.00;99.90
59923;DHT22;45778;51.142;3.732;2023-12-22T05:46:28;10.10;99.90
59923;DHT22;45778;51.142;3.732;2023-12-22T05:48:54;10.10;99.90
59923;DHT22;45778;51.142;3.732;2023-12-22T05:51:23;10.10;99.90
59923;DHT22;45778;51.142;3.732;2023-12-22T05:53:48;10.00;99.90
59923;DHT22;45778;51.142;3.732;2023-12-22T05:56:18;10.10;99.90
59923;DHT22;45778;51.142;3.732;2023-12-22T05:58:48;10.00;99.90
59923;DHT22;45778;51.142;3.732;2023-12-22T06:01:18;9.80;99.90
59923;DHT22;45778;51.142;3.732;2023-12-22T06:03:45;9.70;99.90
59923;DHT22;45778;51.142;3.732;2023-12-22T06:06:11;9.60;99.90
59923;DHT22;45778;51.142;3.732;2023-12-22T06:08:37;9.50;99.90
59923;DHT22;45778;51.142;3.732;2023-12-22T06:11:04;9.50;99.90
59923;DHT22;45778;51.142;3.732;2023-12-22T06:13:30;9.40;99.90
59923;DHT22;45778;51.142;3.732;2023-12-22T06:15:56;9.40;99.90
59923;DHT22;45778;51.142;3.732;2023-12-22T06:18:22;9.40;99.90
59923;DHT22;45778;51.142;3.732;2023-12-22T06:20:47;9.40;99.90
59923;DHT22;45778;51.142;3.732;2023-12-22T06:23:13;9.40;99.90
59923;DHT22;45778;51.142;3.732;2023-12-22T06:25:40;9.30;99.90
59923;DHT22;45778;51.142;3.732;2023-12-22T06:28:05;9.30;99.90
59923;DHT22;45778;51.142;3.732;2023-12-22T06:30:31;9.20;99.90
59923;DHT22;45778;51.142;3.732;2023-12-22T06:32:57;9.20;99.90
59923;DHT22;45778;51.142;3.732;2023-12-22T06:35:22;9.10;99.90
59923;DHT22;45778;51.142;3.732;2023-12-22T06:37:51;9.10;99.90
59923;DHT22;45778;51.142;3.732;2023-12-22T06:40:17;9.00;99.90
59923;DHT22;45778;51.142;3.732;2023-12-22T06:42:44;9.10;99.90
59923;DHT22;45778;51.142;3.732;2023-12-22T06:45:10;9.00;99.90
59923;DHT22;45778;51.142;3.732;2023-12-22T06:47:36;9.10;99.90
59923;DHT22;45778;51.142;3.732;2023-12-22T06:50:02;9.10;99.90
59923;DHT22;45778;51.142;3.732;2023-12-22T06:52:29;9.10;99.90
59923;DHT22;45778;51.142;3.732;2023-12-22T06:54:56;9.20;99.90
59923;DHT22;45778;51.142;3.732;2023-12-22T06:57:22;9.30;99.90
59923;DHT22;45778;51.142;3.732;2023-12-22T06:59:47;9.20;99.90
59923;DHT22;45778;51.142;3.732;2023-12-22T07:02:14;9.20;99.90
59923;DHT22;45778;51.142;3.732;2023-12-22T07:04:40;9.20;99.90
59923;DHT22;45778;51.142;3.732;2023-12-22T07:07:06;9.20;99.90
59923;DHT22;45778;51.142;3.732;2023-12-22T07:09:32;9.20;99.90
59923;DHT22;45778;51.142;3.732;2023-12-22T07:11:57;9.20;99.90
59923;DHT22;45778;51.142;3.732;2023-12-22T07:14:24;9.20;99.90
59923;DHT22;45778;51.142;3.732;2023-12-22T07:16:49;9.10;99.90
59923;DHT22;45778;51.142;3.732;2023-12-22T07:19:15;9.20;99.90
59923;DHT22;45778;51.142;3.732;2023-12-22T07:21:41;9.10;99.90
59923;DHT22;45778;51.142;3.732;2023-12-22T07:24:07;9.10;99.90
59923;DHT22;45778;51.142;3.732;2023-12-22T07:26:33;9.20;99.90
59923;DHT22;45778;51.142;3.732;2023-12-22T07:28:59;9.10;99.90
59923;DHT22;45778;51.142;3.732;2023-12-22T07:31:25;9.20;99.90
59923;DHT22;45778;51.142;3.732;2023-12-22T07:33:51;9.20;99.90
59923;DHT22;45778;51.142;3.732;2023-12-22T07:36:17;9.20;99.90
59923;DHT22;45778;51.142;3.732;2023-12-22T07:38:46;9.20;99.90
59923;DHT22;45778;51.142;3.732;2023-12-22T07:41:12;9.30;99.90
59923;DHT22;45778;51.142;3.732;2023-12-22T07:43:38;9.30;99.90
59923;DHT22;45778;51.142;3.732;2023-12-22T07:46:03;9.30;99.90
59923;DHT22;45778;51.142;3.732;2023-12-22T07:48:29;9.30;99.90
59923;DHT22;45778;51.142;3.732;2023-12-22T07:50:55;9.30;99.90
59923;DHT22;45778;51.142;3.732;2023-12-22T07:53:21;9.30;99.90
59923;DHT22;45778;51.142;3.732;2023-12-22T07:55:46;9.30;99.90
59923;DHT22;45778;51.142;3.732;2023-12-22T07:58:13;9.30;99.90
59923;DHT22;45778;51.142;3.732;2023-12-22T08:00:40;9.30;99.90
59923;DHT22;45778;51.142;3.732;2023-12-22T08:03:05;9.40;99.90
59923;DHT22;45778;51.142;3.732;2023-12-22T08:05:31;9.40;99.90
59923;DHT22;45778;51.142;3.732;2023-12-22T08:07:59;9.40;99.90
59923;DHT22;45778;51.142;3.732;2023-12-22T08:10:24;9.40;99.90
59923;DHT22;45778;51.142;3.732;2023-12-22T08:12:50;9.40;99.90
59923;DHT22;45778;51.142;3.732;2023-12-22T08:15:16;9.50;99.90
59923;DHT22;45778;51.142;3.732;2023-12-22T08:17:49;9.50;99.90
59923;DHT22;45778;51.142;3.732;2023-12-22T08:20:19;9.50;99.90
59923;DHT22;45778;51.142;3.732;2023-12-22T08:22:49;9.60;99.90
59923;DHT22;45778;51.142;3.732;2023-12-22T08:25:16;9.60;99.90
59923;DHT22;45778;51.142;3.732;2023-12-22T08:27:45;9.60;99.90
59923;DHT22;45778;51.142;3.732;2023-12-22T08:30:11;9.70;99.90
59923;DHT22;45778;51.142;3.732;2023-12-22T08:32:37;9.70;99.90
59923;DHT22;45778;51.142;3.732;2023-12-22T08:35:03;9.70;99.90
59923;DHT22;45778;51.142;3.732;2023-12-22T08:37:30;9.70;99.90
59923;DHT22;45778;51.142;3.732;2023-12-22T08:39:56;9.80;99.90
59923;DHT22;45778;51.142;3.732;2023-12-22T08:42:21;9.80;99.90
59923;DHT22;45778;51.142;3.732;2023-12-22T08:44:48;9.70;99.90
59923;DHT22;45778;51.142;3.732;2023-12-22T08:47:13;9.80;99.90
59923;DHT22;45778;51.142;3.732;2023-12-22T08:49:39;9.80;99.90
59923;DHT22;45778;51.142;3.732;2023-12-22T08:52:05;9.90;99.90
59923;DHT22;45778;51.142;3.732;2023-12-22T08:54:30;9.90;99.90
59923;DHT22;45778;51.142;3.732;2023-12-22T08:56:56;9.90;99.90
59923;DHT22;45778;51.142;3.732;2023-12-22T08:59:22;9.90;99.90
59923;DHT22;45778;51.142;3.732;2023-12-22T09:01:48;9.90;99.90
59923;DHT22;45778;51.142;3.732;2023-12-22T09:04:13;10.00;99.90
59923;DHT22;45778;51.142;3.732;2023-12-22T09:06:40;10.10;99.90
59923;DHT22;45778;51.142;3.732;2023-12-22T09:09:06;10.20;99.90
59923;DHT22;45778;51.142;3.732;2023-12-22T09:11:33;10.20;99.90
59923;DHT22;45778;51.142;3.732;2023-12-22T09:13:59;10.20;99.90
59923;DHT22;45778;51.142;3.732;2023-12-22T09:16:25;10.30;99.90
59923;DHT22;45778;51.142;3.732;2023-12-22T09:18:51;10.40;99.90
59923;DHT22;45778;51.142;3.732;2023-12-22T09:21:17;10.50;99.90
59923;DHT22;45778;51.142;3.732;2023-12-22T09:23:46;10.60;99.90
59923;DHT22;45778;51.142;3.732;2023-12-22T09:26:13;10.60;99.90
59923;DHT22;45778;51.142;3.732;2023-12-22T09:28:40;10.60;99.90
59923;DHT22;45778;51.142;3.732;2023-12-22T09:31:07;10.70;99.90
59923;DHT22;45778;51.142;3.732;2023-12-22T09:33:33;10.70;99.90
59923;DHT22;45778;51.142;3.732;2023-12-22T09:35:58;10.80;99.90
59923;DHT22;45778;51.142;3.732;2023-12-22T09:38:24;10.80;99.90
59923;DHT22;45778;51.142;3.732;2023-12-22T09:40:50;10.90;99.90
59923;DHT22;45778;51.142;3.732;2023-12-22T09:43:19;10.90;99.90
59923;DHT22;45778;51.142;3.732;2023-12-22T09:45:52;10.90;99.90
59923;DHT22;45778;51.142;3.732;2023-12-22T09:48:18;11.00;99.90
59923;DHT22;45778;51.142;3.732;2023-12-22T09:50:46;11.00;99.90
59923;DHT22;45778;51.142;3.732;2023-12-22T09:53:13;11.10;99.90
59923;DHT22;45778;51.142;3.732;2023-12-22T09:55:42;11.10;99.90
59923;DHT22;45778;51.142;3.732;2023-12-22T09:58:10;11.00;99.90
59923;DHT22;45778;51.142;3.732;2023-12-22T10:00:36;11.00;99.90
59923;DHT22;45778;51.142;3.732;2023-12-22T10:03:06;11.00;99.90
59923;DHT22;45778;51.142;3.732;2023-12-22T10:05:32;11.10;99.90
59923;DHT22;45778;51.142;3.732;2023-12-22T10:08:00;11.10;99.90
59923;DHT22;45778;51.142;3.732;2023-12-22T10:10:28;11.20;99.90
59923;DHT22;45778;51.142;3.732;2023-12-22T10:12:55;11.20;99.90
59923;DHT22;45778;51.142;3.732;2023-12-22T10:15:22;11.20;99.90
59923;DHT22;45778;51.142;3.732;2023-12-22T10:17:54;11.10;99.90
59923;DHT22;45778;51.142;3.732;2023-12-22T10:20:20;11.00;99.90
59923;DHT22;45778;51.142;3.732;2023-12-22T10:22:46;10.90;99.90
59923;DHT22;45778;51.142;3.732;2023-12-22T10:25:15;10.90;99.90
59923;DHT22;45778;51.142;3.732;2023-12-22T10:27:43;10.80;99.90
59923;DHT22;45778;51.142;3.732;2023-12-22T10:30:10;10.70;99.90
59923;DHT22;45778;51.142;3.732;2023-12-22T10:32:42;10.80;99.90
59923;DHT22;45778;51.142;3.732;2023-12-22T10:35:13;10.70;99.90
59923;DHT22;45778;51.142;3.732;2023-12-22T10:37:39;10.70;99.90
59923;DHT22;45778;51.142;3.732;2023-12-22T10:40:05;10.70;99.90
59923;DHT22;45778;51.142;3.732;2023-12-22T10:42:32;10.80;99.90
59923;DHT22;45778;51.142;3.732;2023-12-22T10:44:58;10.80;99.90
59923;DHT22;45778;51.142;3.732;2023-12-22T10:47:23;10.90;99.90
59923;DHT22;45778;51.142;3.732;2023-12-22T10:49:49;11.00;99.90
59923;DHT22;45778;51.142;3.732;2023-12-22T10:52:17;11.10;99.90
59923;DHT22;45778;51.142;3.732;2023-12-22T10:54:48;11.20;99.90
59923;DHT22;45778;51.142;3.732;2023-12-22T10:57:17;11.20;99.90
59923;DHT22;45778;51.142;3.732;2023-12-22T10:59:45;11.20;99.90
59923;DHT22;45778;51.142;3.732;2023-12-22T11:02:16;11.20;99.90
59923;DHT22;45778;51.142;3.732;2023-12-22T11:04:54;11.20;99.90
59923;DHT22;45778;51.142;3.732;2023-12-22T11:07:24;11.20;99.90
59923;DHT22;45778;51.142;3.732;2023-12-22T11:09:55;11.30;99.90
59923;DHT22;45778;51.142;3.732;2023-12-22T11:12:21;11.20;99.90
59923;DHT22;45778;51.142;3.732;2023-12-22T11:14:48;11.20;99.90
59923;DHT22;45778;51.142;3.732;2023-12-22T11:17:22;11.30;99.90
59923;DHT22;45778;51.142;3.732;2023-12-22T11:19:49;11.40;99.90
59923;DHT22;45778;51.142;3.732;2023-12-22T11:22:18;11.30;99.90
59923;DHT22;45778;51.142;3.732;2023-12-22T11:24:47;11.40;99.90
59923;DHT22;45778;51.142;3.732;2023-12-22T11:27:19;11.40;99.90
59923;DHT22;45778;51.142;3.732;2023-12-22T11:29:47;11.50;99.90
59923;DHT22;45778;51.142;3.732;2023-12-22T11:32:15;11.40;99.90
59923;DHT22;45778;51.142;3.732;2023-12-22T11:34:43;11.50;99.90
59923;DHT22;45778;51.142;3.732;2023-12-22T11:37:15;11.50;99.90
59923;DHT22;45778;51.142;3.732;2023-12-22T11:39:42;11.50;99.90
59923;DHT22;45778;51.142;3.732;2023-12-22T11:42:14;11.60;99.90
59923;DHT22;45778;51.142;3.732;2023-12-22T11:44:41;11.50;99.90
59923;DHT22;45778;51.142;3.732;2023-12-22T11:47:08;11.60;99.90
59923;DHT22;45778;51.142;3.732;2023-12-22T11:49:35;11.60;99.90
59923;DHT22;45778;51.142;3.732;2023-12-22T11:52:25;11.60;99.90
59923;DHT22;45778;51.142;3.732;2023-12-22T11:54:53;11.60;99.90
59923;DHT22;45778;51.142;3.732;2023-12-22T12:00:02;11.60;99.90
59923;DHT22;45778;51.142;3.732;2023-12-22T12:02:36;11.60;99.90
59923;DHT22;45778;51.142;3.732;2023-12-22T12:05:04;11.60;99.90
59923;DHT22;45778;51.142;3.732;2023-12-22T12:07:48;11.50;99.90
59923;DHT22;45778;51.142;3.732;2023-12-22T12:13:08;11.50;99.90
59923;DHT22;45778;51.142;3.732;2023-12-22T12:15:34;11.40;99.90
59923;DHT22;45778;51.142;3.732;2023-12-22T12:18:01;11.40;99.90
59923;DHT22;45778;51.142;3.732;2023-12-22T12:20:27;11.30;99.90
59923;DHT22;45778;51.142;3.732;2023-12-22T12:22:53;11.40;99.90
59923;DHT22;45778;51.142;3.732;2023-12-22T12:25:22;11.40;99.90
59923;DHT22;45778;51.142;3.732;2023-12-22T12:28:04;11.40;99.90
59923;DHT22;45778;51.142;3.732;2023-12-22T12:30:31;11.50;99.90
59923;DHT22;45778;51.142;3.732;2023-12-22T12:32:59;11.50;99.90
59923;DHT22;45778;51.142;3.732;2023-12-22T12:35:31;11.40;99.90
59923;DHT22;45778;51.142;3.732;2023-12-22T12:37:57;11.50;99.90
59923;DHT22;45778;51.142;3.732;2023-12-22T12:40:24;11.50;99.90
59923;DHT22;45778;51.142;3.732;2023-12-22T12:42:50;11.50;99.90
59923;DHT22;45778;51.142;3.732;2023-12-22T12:45:24;11.50;99.90
59923;DHT22;45778;51.142;3.732;2023-12-22T12:47:58;11.50;99.90
59923;DHT22;45778;51.142;3.732;2023-12-22T12:50:24;11.50;99.90
59923;DHT22;45778;51.142;3.732;2023-12-22T12:52:52;11.60;99.90
59923;DHT22;45778;51.142;3.732;2023-12-22T12:55:20;11.50;99.90
59923;DHT22;45778;51.142;3.732;2023-12-22T12:57:48;11.60;99.90
59923;DHT22;45778;51.142;3.732;2023-12-22T13:00:17;11.50;99.90
59923;DHT22;45778;51.142;3.732;2023-12-22T13:02:49;11.60;99.90
59923;DHT22;45778;51.142;3.732;2023-12-22T13:05:24;11.60;99.90
59923;DHT22;45778;51.142;3.732;2023-12-22T13:07:50;11.60;99.90
59923;DHT22;45778;51.142;3.732;2023-12-22T13:10:23;11.60;99.90
59923;DHT22;45778;51.142;3.732;2023-12-22T13:12:50;11.50;99.90
59923;DHT22;45778;51.142;3.732;2023-12-22T13:15:16;11.60;99.90
59923;DHT22;45778;51.142;3.732;2023-12-22T13:17:44;11.60;99.90
59923;DHT22;45778;51.142;3.732;2023-12-22T13:20:10;11.60;99.90
59923;DHT22;45778;51.142;3.732;2023-12-22T13:22:36;11.60;99.90
59923;DHT22;45778;51.142;3.732;2023-12-22T13:25:03;11.60;99.90
59923;DHT22;45778;51.142;3.732;2023-12-22T13:27:29;11.50;99.90
59923;DHT22;45778;51.142;3.732;2023-12-22T13:29:55;11.40;99.90
59923;DHT22;45778;51.142;3.732;2023-12-22T13:32:22;11.40;99.90
59923;DHT22;45778;51.142;3.732;2023-12-22T13:34:52;11.40;99.90
59923;DHT22;45778;51.142;3.732;2023-12-22T13:37:19;11.50;99.90
59923;DHT22;45778;51.142;3.732;2023-12-22T13:39:45;11.40;99.90
59923;DHT22;45778;51.142;3.732;2023-12-22T13:42:19;11.50;99.90
59923;DHT22;45778;51.142;3.732;2023-12-22T13:44:47;11.40;99.90
59923;DHT22;45778;51.142;3.732;2023-12-22T13:47:18;11.40;99.90
59923;DHT22;45778;51.142;3.732;2023-12-22T13:49:45;11.50;99.90
59923;DHT22;45778;51.142;3.732;2023-12-22T13:52:30;11.50;99.90
59923;DHT22;45778;51.142;3.732;2023-12-22T13:55:06;11.50;99.90
59923;DHT22;45778;51.142;3.732;2023-12-22T13:57:35;11.60;99.90
59923;DHT22;45778;51.142;3.732;2023-12-22T14:00:29;11.60;99.90
59923;DHT22;45778;51.142;3.732;2023-12-22T14:02:55;11.60;99.90
59923;DHT22;45778;51.142;3.732;2023-12-22T14:05:21;11.60;99.90
59923;DHT22;45778;51.142;3.732;2023-12-22T14:07:47;11.60;99.90
59923;DHT22;45778;51.142;3.732;2023-12-22T14:10:13;11.60;99.90
59923;DHT22;45778;51.142;3.732;2023-12-22T14:12:40;11.60;99.90
59923;DHT22;45778;51.142;3.732;2023-12-22T14:15:10;11.60;99.90
59923;DHT22;45778;51.142;3.732;2023-12-22T14:17:36;11.60;99.90
59923;DHT22;45778;51.142;3.732;2023-12-22T14:20:02;11.60;99.90
59923;DHT22;45778;51.142;3.732;2023-12-22T14:22:30;11.60;99.90
59923;DHT22;45778;51.142;3.732;2023-12-22T14:24:56;11.60;99.90
59923;DHT22;45778;51.142;3.732;2023-12-22T14:27:24;11.70;99.90
59923;DHT22;45778;51.142;3.732;2023-12-22T14:29:50;11.60;99.90
59923;DHT22;45778;51.142;3.732;2023-12-22T14:32:16;11.70;99.90
59923;DHT22;45778;51.142;3.732;2023-12-22T14:34:44;11.70;99.90
59923;DHT22;45778;51.142;3.732;2023-12-22T14:37:10;11.70;99.90
59923;DHT22;45778;51.142;3.732;2023-12-22T14:39:36;11.60;99.90
59923;DHT22;45778;51.142;3.732;2023-12-22T14:42:02;11.70;99.90
59923;DHT22;45778;51.142;3.732;2023-12-22T14:44:29;11.70;99.90
59923;DHT22;45778;51.142;3.732;2023-12-22T14:46:54;11.60;99.90
59923;DHT22;45778;51.142;3.732;2023-12-22T14:49:21;11.70;99.90
59923;DHT22;45778;51.142;3.732;2023-12-22T14:51:47;11.60;99.90
59923;DHT22;45778;51.142;3.732;2023-12-22T14:54:17;11.60;99.90
59923;DHT22;45778;51.142;3.732;2023-12-22T14:56:43;11.60;99.90
59923;DHT22;45778;51.142;3.732;2023-12-22T14:59:09;11.60;99.90
59923;DHT22;45778;51.142;3.732;2023-12-22T15:01:36;11.70;99.90
59923;DHT22;45778;51.142;3.732;2023-12-22T15:04:02;11.70;99.90
59923;DHT22;45778;51.142;3.732;2023-12-22T15:06:28;11.70;99.90
59923;DHT22;45778;51.142;3.732;2023-12-22T15:08:55;11.70;99.90
59923;DHT22;45778;51.142;3.732;2023-12-22T15:11:20;11.70;99.90
59923;DHT22;45778;51.142;3.732;2023-12-22T15:13:46;11.70;99.90
59923;DHT22;45778;51.142;3.732;2023-12-22T15:16:12;11.60;99.90
59923;DHT22;45778;51.142;3.732;2023-12-22T15:18:37;11.70;99.90
59923;DHT22;45778;51.142;3.732;2023-12-22T15:21:04;11.70;99.90
59923;DHT22;45778;51.142;3.732;2023-12-22T15:23:29;11.70;99.90
59923;DHT22;45778;51.142;3.732;2023-12-22T15:25:59;11.60;99.90
59923;DHT22;45778;51.142;3.732;2023-12-22T15:28:24;11.70;99.90
59923;DHT22;45778;51.142;3.732;2023-12-22T15:30:51;11.60;99.90
59923;DHT22;45778;51.142;3.732;2023-12-22T15:33:17;11.70;99.90
59923;DHT22;45778;51.142;3.732;2023-12-22T15:35:43;11.60;99.90
59923;DHT22;45778;51.142;3.732;2023-12-22T15:38:09;11.60;99.90
59923;DHT22;45778;51.142;3.732;2023-12-22T15:40:36;11.70;99.90
59923;DHT22;45778;51.142;3.732;2023-12-22T15:43:02;11.60;99.90